sensor_id;sensor_type;location;lat;lon;timestamp;pressure;altitude;pressure_sealevel;temperature;humidity
51315;BME280;65787;59.922;10.742;2023-12-04T00:00:58;101392.91;;;-5.53;37.79
51315;BME280;65787;59.922;10.742;2023-12-04T00:03:24;101392.09;;;-5.55;38.15
51315;BME280;65787;59.922;10.742;2023-12-04T00:05:49;101385.19;;;-5.56;37.72
51315;BME280;65787;59.922;10.742;2023-12-04T00:08:14;101395.72;;;-5.58;38.14
51315;BME280;65787;59.922;10.742;2023-12-04T00:10:40;101400.94;;;-5.58;37.91
51315;BME280;65787;59.922;10.742;2023-12-04T00:13:05;101380.94;;;-5.59;37.80
51315;BME280;65787;59.922;10.742;2023-12-04T00:15:30;101389.63;;;-5.58;37.88
51315;BME280;65787;59.922;10.742;2023-12-04T00:17:56;101395.78;;;-5.59;37.86
51315;BME280;65787;59.922;10.742;2023-12-04T00:20:21;101391.47;;;-5.60;38.20
51315;BME280;65787;59.922;10.742;2023-12-04T00:22:46;101389.81;;;-5.63;38.27
51315;BME280;65787;59.922;10.742;2023-12-04T00:25:12;101388.97;;;-5.64;38.17
51315;BME280;65787;59.922;10.742;2023-12-04T00:27:37;101386.44;;;-5.65;38.47
51315;BME280;65787;59.922;10.742;2023-12-04T00:30:03;101383.81;;;-5.65;38.24
51315;BME280;65787;59.922;10.742;2023-12-04T00:32:32;101393.50;;;-5.67;38.33
51315;BME280;65787;59.922;10.742;2023-12-04T00:34:57;101392.72;;;-5.69;38.21
51315;BME280;65787;59.922;10.742;2023-12-04T00:37:22;101392.66;;;-5.68;38.36
51315;BME280;65787;59.922;10.742;2023-12-04T00:39:48;101385.78;;;-5.70;38.36
51315;BME280;65787;59.922;10.742;2023-12-04T00:42:13;101394.56;;;-5.71;38.75
51315;BME280;65787;59.922;10.742;2023-12-04T00:44:38;101391.88;;;-5.70;38.52
51315;BME280;65787;59.922;10.742;2023-12-04T00:47:04;101389.25;;;-5.70;38.35
51315;BME280;65787;59.922;10.742;2023-12-04T00:49:30;101389.19;;;-5.68;38.63
51315;BME280;65787;59.922;10.742;2023-12-04T00:51:55;101380.41;;;-5.67;38.29
51315;BME280;65787;59.922;10.742;2023-12-04T00:54:20;101377.72;;;-5.66;38.81
51315;BME280;65787;59.922;10.742;2023-12-04T00:56:45;101375.13;;;-5.66;38.81
51315;BME280;65787;59.922;10.742;2023-12-04T00:59:11;101380.28;;;-5.64;38.92
51315;BME280;65787;59.922;10.742;2023-12-04T01:01:36;101377.63;;;-5.62;38.93
51315;BME280;65787;59.922;10.742;2023-12-04T01:04:02;101365.44;;;-5.64;38.89
51315;BME280;65787;59.922;10.742;2023-12-04T01:06:28;101372.50;;;-5.66;38.45
51315;BME280;65787;59.922;10.742;2023-12-04T01:08:54;101376.81;;;-5.65;38.64
51315;BME280;65787;59.922;10.742;2023-12-04T01:11:20;101379.41;;;-5.65;38.69
51315;BME280;65787;59.922;10.742;2023-12-04T01:13:45;101380.34;;;-5.66;38.58
51315;BME280;65787;59.922;10.742;2023-12-04T01:16:10;101390.88;;;-5.67;38.89
51315;BME280;65787;59.922;10.742;2023-12-04T01:18:36;101389.09;;;-5.67;38.76
51315;BME280;65787;59.922;10.742;2023-12-04T01:21:02;101387.38;;;-5.66;38.72
51315;BME280;65787;59.922;10.742;2023-12-04T01:23:27;101389.97;;;-5.66;38.92
51315;BME280;65787;59.922;10.742;2023-12-04T01:25:53;101391.81;;;-5.68;38.72
51315;BME280;65787;59.922;10.742;2023-12-04T01:28:18;101391.88;;;-5.70;38.59
51315;BME280;65787;59.922;10.742;2023-12-04T01:30:43;101384.94;;;-5.71;38.53
51315;BME280;65787;59.922;10.742;2023-12-04T01:33:09;101392.00;;;-5.73;38.77
51315;BME280;65787;59.922;10.742;2023-12-04T01:35:34;101392.78;;;-5.71;38.51
51315;BME280;65787;59.922;10.742;2023-12-04T01:37:59;101403.31;;;-5.72;37.96
51315;BME280;65787;59.922;10.742;2023-12-04T01:40:25;101395.59;;;-5.75;37.78
51315;BME280;65787;59.922;10.742;2023-12-04T01:42:51;101400.06;;;-5.77;38.42
51315;BME280;65787;59.922;10.742;2023-12-04T01:45:16;101391.28;;;-5.76;38.05
51315;BME280;65787;59.922;10.742;2023-12-04T01:47:42;101405.28;;;-5.77;37.89
51315;BME280;65787;59.922;10.742;2023-12-04T01:50:07;101405.41;;;-5.80;37.43
51315;BME280;65787;59.922;10.742;2023-12-04T01:52:33;101397.75;;;-5.85;38.04
51315;BME280;65787;59.922;10.742;2023-12-04T01:55:00;101405.59;;;-5.85;38.18
51315;BME280;65787;59.922;10.742;2023-12-04T01:57:25;101403.97;;;-5.88;37.63
51315;BME280;65787;59.922;10.742;2023-12-04T01:59:51;101404.09;;;-5.91;37.97
51315;BME280;65787;59.922;10.742;2023-12-04T02:02:16;101404.16;;;-5.92;38.13
51315;BME280;65787;59.922;10.742;2023-12-04T02:04:42;101400.69;;;-5.93;38.28
51315;BME280;65787;59.922;10.742;2023-12-04T02:07:07;101408.47;;;-5.91;38.64
51315;BME280;65787;59.922;10.742;2023-12-04T02:09:34;101403.13;;;-5.88;38.60
51315;BME280;65787;59.922;10.742;2023-12-04T02:12:00;101392.50;;;-5.85;38.49
51315;BME280;65787;59.922;10.742;2023-12-04T02:14:25;101396.06;;;-5.86;38.24
51315;BME280;65787;59.922;10.742;2023-12-04T02:16:50;101396.06;;;-5.86;38.37
51315;BME280;65787;59.922;10.742;2023-12-04T02:19:17;101396.19;;;-5.89;37.75
51315;BME280;65787;59.922;10.742;2023-12-04T02:21:42;101390.16;;;-5.91;37.80
51315;BME280;65787;59.922;10.742;2023-12-04T02:24:08;101389.38;;;-5.93;38.37
51315;BME280;65787;59.922;10.742;2023-12-04T02:26:34;101388.63;;;-5.95;38.48
51315;BME280;65787;59.922;10.742;2023-12-04T02:29:08;101384.16;;;-5.93;38.43
51315;BME280;65787;59.922;10.742;2023-12-04T02:31:36;101385.88;;;-5.92;38.58
51315;BME280;65787;59.922;10.742;2023-12-04T02:34:04;101381.47;;;-5.92;38.39
51315;BME280;65787;59.922;10.742;2023-12-04T02:36:31;101382.38;;;-5.93;38.18
51315;BME280;65787;59.922;10.742;2023-12-04T02:38:57;101378.84;;;-5.92;38.65
51315;BME280;65787;59.922;10.742;2023-12-04T02:41:22;101378.66;;;-5.87;38.60
51315;BME280;65787;59.922;10.742;2023-12-04T02:43:48;101383.97;;;-5.89;38.87
51315;BME280;65787;59.922;10.742;2023-12-04T02:46:13;101384.88;;;-5.90;38.27
51315;BME280;65787;59.922;10.742;2023-12-04T02:48:39;101376.13;;;-5.89;39.02
51315;BME280;65787;59.922;10.742;2023-12-04T02:51:04;101376.03;;;-5.87;38.87
51315;BME280;65787;59.922;10.742;2023-12-04T02:53:30;101378.66;;;-5.87;38.50
51315;BME280;65787;59.922;10.742;2023-12-04T02:55:55;101382.13;;;-5.87;39.10
51315;BME280;65787;59.922;10.742;2023-12-04T02:58:21;101380.44;;;-5.88;38.55
51315;BME280;65787;59.922;10.742;2023-12-04T03:00:46;101388.22;;;-5.86;38.97
51315;BME280;65787;59.922;10.742;2023-12-04T03:03:11;101384.75;;;-5.87;39.22
51315;BME280;65787;59.922;10.742;2023-12-04T03:05:37;101384.81;;;-5.88;38.82
51315;BME280;65787;59.922;10.742;2023-12-04T03:08:02;101384.75;;;-5.87;39.10
51315;BME280;65787;59.922;10.742;2023-12-04T03:10:27;101378.59;;;-5.86;38.92
51315;BME280;65787;59.922;10.742;2023-12-04T03:12:53;101387.44;;;-5.88;38.87
51315;BME280;65787;59.922;10.742;2023-12-04T03:15:18;101387.44;;;-5.88;38.80
51315;BME280;65787;59.922;10.742;2023-12-04T03:17:43;101383.16;;;-5.91;39.02
51315;BME280;65787;59.922;10.742;2023-12-04T03:20:09;101384.16;;;-5.93;38.55
51315;BME280;65787;59.922;10.742;2023-12-04T03:22:36;101375.63;;;-5.97;38.60
51315;BME280;65787;59.922;10.742;2023-12-04T03:25:01;101378.50;;;-6.03;38.82
51315;BME280;65787;59.922;10.742;2023-12-04T03:27:26;101374.09;;;-6.03;38.96
51315;BME280;65787;59.922;10.742;2023-12-04T03:29:52;101376.78;;;-6.04;38.80
51315;BME280;65787;59.922;10.742;2023-12-04T03:32:17;101377.56;;;-6.02;39.00
51315;BME280;65787;59.922;10.742;2023-12-04T03:34:43;101374.09;;;-6.03;39.12
51315;BME280;65787;59.922;10.742;2023-12-04T03:37:08;101373.13;;;-6.00;38.96
51315;BME280;65787;59.922;10.742;2023-12-04T03:39:33;101374.91;;;-6.00;38.86
51315;BME280;65787;59.922;10.742;2023-12-04T03:41:59;101365.16;;;-5.97;38.96
51315;BME280;65787;59.922;10.742;2023-12-04T03:44:24;101370.44;;;-5.98;38.49
51315;BME280;65787;59.922;10.742;2023-12-04T03:46:50;101368.75;;;-5.99;38.72
51315;BME280;65787;59.922;10.742;2023-12-04T03:49:16;101369.59;;;-5.99;38.85
51315;BME280;65787;59.922;10.742;2023-12-04T03:51:41;101365.38;;;-6.01;38.88
51315;BME280;65787;59.922;10.742;2023-12-04T03:54:06;101370.59;;;-6.01;39.00
51315;BME280;65787;59.922;10.742;2023-12-04T03:56:32;101366.09;;;-5.98;38.94
51315;BME280;65787;59.922;10.742;2023-12-04T03:58:57;101364.50;;;-6.02;38.38
51315;BME280;65787;59.922;10.742;2023-12-04T04:01:22;101364.66;;;-6.05;38.16
51315;BME280;65787;59.922;10.742;2023-12-04T04:03:48;101367.25;;;-6.05;38.60
51315;BME280;65787;59.922;10.742;2023-12-04T04:06:13;101369.94;;;-6.07;38.56
51315;BME280;65787;59.922;10.742;2023-12-04T04:08:39;101369.16;;;-6.09;38.09
51315;BME280;65787;59.922;10.742;2023-12-04T04:11:04;101369.16;;;-6.09;38.84
51315;BME280;65787;59.922;10.742;2023-12-04T04:13:29;101370.72;;;-6.05;39.39
51315;BME280;65787;59.922;10.742;2023-12-04T04:15:55;101361.03;;;-6.03;39.20
51315;BME280;65787;59.922;10.742;2023-12-04T04:18:20;101361.88;;;-6.02;39.37
51315;BME280;65787;59.922;10.742;2023-12-04T04:20:45;101361.75;;;-5.99;38.90
51315;BME280;65787;59.922;10.742;2023-12-04T04:23:11;101356.47;;;-5.97;38.81
51315;BME280;65787;59.922;10.742;2023-12-04T04:25:36;101360.84;;;-5.98;38.84
51315;BME280;65787;59.922;10.742;2023-12-04T04:28:01;101367.00;;;-5.99;38.75
51315;BME280;65787;59.922;10.742;2023-12-04T04:30:27;101368.75;;;-5.99;39.19
51315;BME280;65787;59.922;10.742;2023-12-04T04:32:52;101358.41;;;-6.03;38.90
51315;BME280;65787;59.922;10.742;2023-12-04T04:35:18;101362.75;;;-6.01;39.00
51315;BME280;65787;59.922;10.742;2023-12-04T04:37:43;101360.13;;;-6.01;38.80
51315;BME280;65787;59.922;10.742;2023-12-04T04:40:08;101357.63;;;-6.05;38.83
51315;BME280;65787;59.922;10.742;2023-12-04T04:42:34;101361.09;;;-6.04;38.68
51315;BME280;65787;59.922;10.742;2023-12-04T04:44:59;101359.53;;;-6.08;38.41
51315;BME280;65787;59.922;10.742;2023-12-04T04:47:25;101363.91;;;-6.09;38.96
51315;BME280;65787;59.922;10.742;2023-12-04T04:49:50;101356.97;;;-6.10;38.63
51315;BME280;65787;59.922;10.742;2023-12-04T04:52:15;101359.66;;;-6.11;38.77
51315;BME280;65787;59.922;10.742;2023-12-04T04:54:41;101353.63;;;-6.13;38.33
51315;BME280;65787;59.922;10.742;2023-12-04T04:57:06;101356.47;;;-6.18;38.35
51315;BME280;65787;59.922;10.742;2023-12-04T04:59:33;101351.34;;;-6.21;38.68
51315;BME280;65787;59.922;10.742;2023-12-04T05:01:58;101353.25;;;-6.25;38.27
51315;BME280;65787;59.922;10.742;2023-12-04T05:04:24;101365.41;;;-6.24;38.59
51315;BME280;65787;59.922;10.742;2023-12-04T05:06:49;101358.41;;;-6.23;38.80
51315;BME280;65787;59.922;10.742;2023-12-04T05:09:15;101357.34;;;-6.19;39.02
51315;BME280;65787;59.922;10.742;2023-12-04T05:11:40;101359.06;;;-6.18;38.65
51315;BME280;65787;59.922;10.742;2023-12-04T05:14:06;101362.59;;;-6.19;38.65
51315;BME280;65787;59.922;10.742;2023-12-04T05:16:31;101356.53;;;-6.19;39.12
51315;BME280;65787;59.922;10.742;2023-12-04T05:18:57;101352.97;;;-6.18;39.29
51315;BME280;65787;59.922;10.742;2023-12-04T05:21:24;101353.84;;;-6.18;38.76
51315;BME280;65787;59.922;10.742;2023-12-04T05:23:50;101357.25;;;-6.16;39.08
51315;BME280;65787;59.922;10.742;2023-12-04T05:26:15;101358.16;;;-6.17;38.80
51315;BME280;65787;59.922;10.742;2023-12-04T05:28:41;101352.84;;;-6.15;39.14
51315;BME280;65787;59.922;10.742;2023-12-04T05:31:06;101356.13;;;-6.10;38.77
51315;BME280;65787;59.922;10.742;2023-12-04T05:33:32;101356.13;;;-6.10;39.17
51315;BME280;65787;59.922;10.742;2023-12-04T05:35:59;101361.31;;;-6.09;39.11
51315;BME280;65787;59.922;10.742;2023-12-04T05:38:25;101354.31;;;-6.08;38.63
51315;BME280;65787;59.922;10.742;2023-12-04T05:40:50;101356.06;;;-6.09;38.70
51315;BME280;65787;59.922;10.742;2023-12-04T05:43:16;101355.28;;;-6.11;38.71
51315;BME280;65787;59.922;10.742;2023-12-04T05:45:41;101352.59;;;-6.09;38.91
51315;BME280;65787;59.922;10.742;2023-12-04T05:48:07;101356.91;;;-6.08;38.66
51315;BME280;65787;59.922;10.742;2023-12-04T05:50:32;101352.69;;;-6.11;38.84
51315;BME280;65787;59.922;10.742;2023-12-04T05:52:57;101352.69;;;-6.11;38.72
51315;BME280;65787;59.922;10.742;2023-12-04T05:55:24;101354.41;;;-6.11;38.73
51315;BME280;65787;59.922;10.742;2023-12-04T05:57:49;101343.25;;;-6.15;38.24
51315;BME280;65787;59.922;10.742;2023-12-04T06:00:14;101345.78;;;-6.13;38.68
51315;BME280;65787;59.922;10.742;2023-12-04T06:02:41;101340.56;;;-6.13;38.62
51315;BME280;65787;59.922;10.742;2023-12-04T06:05:06;101347.50;;;-6.12;38.72
51315;BME280;65787;59.922;10.742;2023-12-04T06:07:32;101338.72;;;-6.11;38.47
51315;BME280;65787;59.922;10.742;2023-12-04T06:09:58;101339.66;;;-6.12;38.44
51315;BME280;65787;59.922;10.742;2023-12-04T06:12:23;101337.13;;;-6.14;38.20
51315;BME280;65787;59.922;10.742;2023-12-04T06:14:48;101335.41;;;-6.15;38.65
51315;BME280;65787;59.922;10.742;2023-12-04T06:17:14;101344.22;;;-6.17;38.26
51315;BME280;65787;59.922;10.742;2023-12-04T06:19:39;101340.00;;;-6.20;38.27
51315;BME280;65787;59.922;10.742;2023-12-04T06:22:05;101333.16;;;-6.24;38.22
51315;BME280;65787;59.922;10.742;2023-12-04T06:24:30;101332.31;;;-6.25;38.54
51315;BME280;65787;59.922;10.742;2023-12-04T06:26:55;101333.25;;;-6.26;38.71
51315;BME280;65787;59.922;10.742;2023-12-04T06:29:23;101327.09;;;-6.25;38.62
51315;BME280;65787;59.922;10.742;2023-12-04T06:31:49;101318.41;;;-6.25;38.30
51315;BME280;65787;59.922;10.742;2023-12-04T06:34:14;101321.03;;;-6.25;38.79
51315;BME280;65787;59.922;10.742;2023-12-04T06:36:40;101320.09;;;-6.24;38.39
51315;BME280;65787;59.922;10.742;2023-12-04T06:39:10;101324.44;;;-6.23;39.05
51315;BME280;65787;59.922;10.742;2023-12-04T06:41:36;101322.72;;;-6.24;38.58
51315;BME280;65787;59.922;10.742;2023-12-04T06:44:02;101330.44;;;-6.21;38.59
51315;BME280;65787;59.922;10.742;2023-12-04T06:46:28;101321.75;;;-6.21;38.29
51315;BME280;65787;59.922;10.742;2023-12-04T06:48:56;101326.97;;;-6.21;38.49
51315;BME280;65787;59.922;10.742;2023-12-04T06:51:22;101326.19;;;-6.24;38.75
51315;BME280;65787;59.922;10.742;2023-12-04T06:53:47;101335.56;;;-6.18;38.57
51315;BME280;65787;59.922;10.742;2023-12-04T06:56:13;101336.34;;;-6.16;38.64
51315;BME280;65787;59.922;10.742;2023-12-04T06:58:38;101341.44;;;-6.13;38.99
51315;BME280;65787;59.922;10.742;2023-12-04T07:01:04;101335.22;;;-6.10;38.94
51315;BME280;65787;59.922;10.742;2023-12-04T07:03:29;101338.81;;;-6.13;38.39
51315;BME280;65787;59.922;10.742;2023-12-04T07:05:54;101334.38;;;-6.11;38.71
51315;BME280;65787;59.922;10.742;2023-12-04T07:08:20;101332.66;;;-6.12;37.87
51315;BME280;65787;59.922;10.742;2023-12-04T07:10:45;101336.22;;;-6.13;38.35
51315;BME280;65787;59.922;10.742;2023-12-04T07:13:10;101338.81;;;-6.13;38.03
51315;BME280;65787;59.922;10.742;2023-12-04T07:15:38;101341.56;;;-6.16;38.35
51315;BME280;65787;59.922;10.742;2023-12-04T07:18:03;101340.78;;;-6.18;38.09
51315;BME280;65787;59.922;10.742;2023-12-04T07:20:29;101347.84;;;-6.20;38.41
51315;BME280;65787;59.922;10.742;2023-12-04T07:22:54;101342.59;;;-6.20;38.47
51315;BME280;65787;59.922;10.742;2023-12-04T07:25:20;101344.22;;;-6.17;38.49
51315;BME280;65787;59.922;10.742;2023-12-04T07:27:45;101345.00;;;-6.15;38.42
51315;BME280;65787;59.922;10.742;2023-12-04T07:30:11;101340.72;;;-6.16;38.37
51315;BME280;65787;59.922;10.742;2023-12-04T07:32:37;101339.78;;;-6.15;38.23
51315;BME280;65787;59.922;10.742;2023-12-04T07:35:03;101333.72;;;-6.16;38.49
51315;BME280;65787;59.922;10.742;2023-12-04T07:37:28;101338.88;;;-6.14;38.43
51315;BME280;65787;59.922;10.742;2023-12-04T07:39:55;101344.16;;;-6.16;38.11
51315;BME280;65787;59.922;10.742;2023-12-04T07:42:22;101345.06;;;-6.17;38.07
51315;BME280;65787;59.922;10.742;2023-12-04T07:44:47;101342.47;;;-6.17;38.33
51315;BME280;65787;59.922;10.742;2023-12-04T07:47:12;101335.50;;;-6.16;38.57
51315;BME280;65787;59.922;10.742;2023-12-04T07:49:38;101342.53;;;-6.18;38.03
51315;BME280;65787;59.922;10.742;2023-12-04T07:52:04;101349.53;;;-6.19;38.25
51315;BME280;65787;59.922;10.742;2023-12-04T07:54:29;101344.22;;;-6.17;38.37
51315;BME280;65787;59.922;10.742;2023-12-04T07:56:55;101349.34;;;-6.14;38.06
51315;BME280;65787;59.922;10.742;2023-12-04T07:59:20;101347.56;;;-6.14;37.93
51315;BME280;65787;59.922;10.742;2023-12-04T08:01:45;101351.97;;;-6.14;37.98
51315;BME280;65787;59.922;10.742;2023-12-04T08:04:11;101341.56;;;-6.16;38.05
51315;BME280;65787;59.922;10.742;2023-12-04T08:06:36;101351.97;;;-6.14;38.29
51315;BME280;65787;59.922;10.742;2023-12-04T08:09:01;101355.47;;;-6.15;38.31
51315;BME280;65787;59.922;10.742;2023-12-04T08:11:27;101357.19;;;-6.14;37.89
51315;BME280;65787;59.922;10.742;2023-12-04T08:13:53;101353.47;;;-6.09;38.35
51315;BME280;65787;59.922;10.742;2023-12-04T08:16:18;101354.25;;;-6.07;38.60
51315;BME280;65787;59.922;10.742;2023-12-04T08:18:45;101347.19;;;-6.05;37.99
51315;BME280;65787;59.922;10.742;2023-12-04T08:21:10;101347.19;;;-6.05;38.37
51315;BME280;65787;59.922;10.742;2023-12-04T08:23:36;101347.13;;;-6.03;37.68
51315;BME280;65787;59.922;10.742;2023-12-04T08:26:02;101353.06;;;-5.99;37.91
51315;BME280;65787;59.922;10.742;2023-12-04T08:28:27;101352.19;;;-6.00;37.82
51315;BME280;65787;59.922;10.742;2023-12-04T08:30:53;101350.47;;;-5.99;37.92
51315;BME280;65787;59.922;10.742;2023-12-04T08:33:18;101353.66;;;-5.94;37.87
51315;BME280;65787;59.922;10.742;2023-12-04T08:35:45;101357.00;;;-5.91;38.10
51315;BME280;65787;59.922;10.742;2023-12-04T08:38:10;101357.81;;;-5.89;37.84
51315;BME280;65787;59.922;10.742;2023-12-04T08:40:36;101344.59;;;-5.86;38.33
51315;BME280;65787;59.922;10.742;2023-12-04T08:43:01;101354.94;;;-5.82;37.92
51315;BME280;65787;59.922;10.742;2023-12-04T08:45:29;101350.41;;;-5.79;37.67
51315;BME280;65787;59.922;10.742;2023-12-04T08:47:54;101357.31;;;-5.78;37.87
51315;BME280;65787;59.922;10.742;2023-12-04T08:50:20;101359.88;;;-5.76;37.64
51315;BME280;65787;59.922;10.742;2023-12-04T08:52:45;101355.38;;;-5.73;37.98
51315;BME280;65787;59.922;10.742;2023-12-04T08:55:11;101370.06;;;-5.70;37.79
51315;BME280;65787;59.922;10.742;2023-12-04T08:57:36;101371.72;;;-5.68;37.70
51315;BME280;65787;59.922;10.742;2023-12-04T09:00:02;101359.22;;;-5.61;37.67
51315;BME280;65787;59.922;10.742;2023-12-04T09:02:28;101362.69;;;-5.60;37.94
51315;BME280;65787;59.922;10.742;2023-12-04T09:04:54;101352.84;;;-5.55;38.34
51315;BME280;65787;59.922;10.742;2023-12-04T09:07:19;101358.69;;;-5.49;38.10
51315;BME280;65787;59.922;10.742;2023-12-04T09:09:45;101360.16;;;-5.43;38.22
51315;BME280;65787;59.922;10.742;2023-12-04T09:12:11;101371.28;;;-5.38;37.73
51315;BME280;65787;59.922;10.742;2023-12-04T09:14:36;101362.44;;;-5.35;38.19
51315;BME280;65787;59.922;10.742;2023-12-04T09:17:02;101360.47;;;-5.30;38.28
51315;BME280;65787;59.922;10.742;2023-12-04T09:19:28;101358.63;;;-5.28;37.99
51315;BME280;65787;59.922;10.742;2023-12-04T09:21:54;101359.34;;;-5.25;37.83
51315;BME280;65787;59.922;10.742;2023-12-04T09:24:20;101361.66;;;-5.18;38.03
51315;BME280;65787;59.922;10.742;2023-12-04T09:26:45;101356.16;;;-5.12;37.71
51315;BME280;65787;59.922;10.742;2023-12-04T09:29:11;101356.78;;;-5.07;37.96
51315;BME280;65787;59.922;10.742;2023-12-04T09:31:36;101350.50;;;-5.03;37.46
51315;BME280;65787;59.922;10.742;2023-12-04T09:34:02;101356.22;;;-4.95;37.64
51315;BME280;65787;59.922;10.742;2023-12-04T09:36:27;101353.25;;;-4.87;37.66
51315;BME280;65787;59.922;10.742;2023-12-04T09:38:52;101353.81;;;-4.80;37.84
51315;BME280;65787;59.922;10.742;2023-12-04T09:41:17;101349.09;;;-4.74;37.31
51315;BME280;65787;59.922;10.742;2023-12-04T09:43:44;101350.44;;;-4.65;37.47
51315;BME280;65787;59.922;10.742;2023-12-04T09:46:09;101360.50;;;-4.56;37.36
51315;BME280;65787;59.922;10.742;2023-12-04T09:48:35;101354.16;;;-4.52;37.29
51315;BME280;65787;59.922;10.742;2023-12-04T09:51:02;101355.63;;;-4.46;37.35
51315;BME280;65787;59.922;10.742;2023-12-04T09:53:28;101355.25;;;-4.38;37.31
51315;BME280;65787;59.922;10.742;2023-12-04T09:55:55;101349.66;;;-4.31;37.45
51315;BME280;65787;59.922;10.742;2023-12-04T09:58:22;101358.91;;;-4.23;37.53
51315;BME280;65787;59.922;10.742;2023-12-04T10:00:48;101352.44;;;-4.16;37.39
51315;BME280;65787;59.922;10.742;2023-12-04T10:03:14;101362.63;;;-4.10;36.88
51315;BME280;65787;59.922;10.742;2023-12-04T10:05:43;101363.34;;;-4.06;36.52
51315;BME280;65787;59.922;10.742;2023-12-04T10:08:09;101358.59;;;-4.00;36.48
51315;BME280;65787;59.922;10.742;2023-12-04T10:10:34;101361.53;;;-3.89;37.20
51315;BME280;65787;59.922;10.742;2023-12-04T10:13:03;101361.94;;;-3.79;36.67
51315;BME280;65787;59.922;10.742;2023-12-04T10:15:28;101358.91;;;-3.71;36.90
51315;BME280;65787;59.922;10.742;2023-12-04T10:17:54;101353.25;;;-3.63;36.67
51315;BME280;65787;59.922;10.742;2023-12-04T10:20:19;101347.50;;;-3.54;36.35
51315;BME280;65787;59.922;10.742;2023-12-04T10:22:56;101347.88;;;-3.44;36.25
51315;BME280;65787;59.922;10.742;2023-12-04T10:25:22;101346.53;;;-3.36;36.02
51315;BME280;65787;59.922;10.742;2023-12-04T10:27:49;101339.28;;;-3.31;36.13
51315;BME280;65787;59.922;10.742;2023-12-04T10:30:25;101344.25;;;-3.26;36.18
51315;BME280;65787;59.922;10.742;2023-12-04T10:32:54;101340.47;;;-3.20;36.46
51315;BME280;65787;59.922;10.742;2023-12-04T10:35:20;101335.81;;;-3.15;35.91
51315;BME280;65787;59.922;10.742;2023-12-04T10:37:45;101333.59;;;-3.07;36.79
51315;BME280;65787;59.922;10.742;2023-12-04T10:40:11;101329.84;;;-3.03;36.18
51315;BME280;65787;59.922;10.742;2023-12-04T10:42:37;101339.88;;;-2.94;35.31
51315;BME280;65787;59.922;10.742;2023-12-04T10:45:03;101335.13;;;-2.87;35.61
51315;BME280;65787;59.922;10.742;2023-12-04T10:47:31;101327.66;;;-2.79;35.06
51315;BME280;65787;59.922;10.742;2023-12-04T10:49:59;101329.69;;;-2.68;36.03
51315;BME280;65787;59.922;10.742;2023-12-04T10:52:27;101331.88;;;-2.60;35.47
51315;BME280;65787;59.922;10.742;2023-12-04T10:54:53;101330.34;;;-2.48;35.46
51315;BME280;65787;59.922;10.742;2023-12-04T10:57:22;101323.03;;;-2.43;35.55
51315;BME280;65787;59.922;10.742;2023-12-04T10:59:50;101329.44;;;-2.33;35.13
51315;BME280;65787;59.922;10.742;2023-12-04T11:02:19;101325.53;;;-2.26;35.64
51315;BME280;65787;59.922;10.742;2023-12-04T11:04:47;101331.75;;;-2.12;35.63
51315;BME280;65787;59.922;10.742;2023-12-04T11:07:15;101324.00;;;-2.00;35.59
51315;BME280;65787;59.922;10.742;2023-12-04T11:09:41;101319.09;;;-1.91;34.94
51315;BME280;65787;59.922;10.742;2023-12-04T11:12:08;101316.97;;;-1.85;35.41
51315;BME280;65787;59.922;10.742;2023-12-04T11:14:40;101319.13;;;-1.77;34.89
51315;BME280;65787;59.922;10.742;2023-12-04T11:17:08;101329.84;;;-1.66;35.06
51315;BME280;65787;59.922;10.742;2023-12-04T11:19:40;101321.22;;;-1.53;34.84
51315;BME280;65787;59.922;10.742;2023-12-04T11:22:08;101316.22;;;-1.44;34.83
51315;BME280;65787;59.922;10.742;2023-12-04T11:24:35;101314.91;;;-1.37;35.17
51315;BME280;65787;59.922;10.742;2023-12-04T11:27:00;101311.69;;;-1.27;34.15
51315;BME280;65787;59.922;10.742;2023-12-04T11:29:26;101306.91;;;-1.21;34.42
51315;BME280;65787;59.922;10.742;2023-12-04T11:31:52;101306.50;;;-1.14;34.19
51315;BME280;65787;59.922;10.742;2023-12-04T11:34:17;101308.28;;;-1.15;33.95
51315;BME280;65787;59.922;10.742;2023-12-04T11:36:43;101304.22;;;-1.06;34.61
51315;BME280;65787;59.922;10.742;2023-12-04T11:39:10;101313.16;;;-0.94;35.14
51315;BME280;65787;59.922;10.742;2023-12-04T11:41:36;101309.69;;;-0.82;34.74
51315;BME280;65787;59.922;10.742;2023-12-04T11:44:01;101309.31;;;-0.76;34.99
51315;BME280;65787;59.922;10.742;2023-12-04T11:46:27;101314.00;;;-0.67;33.87
51315;BME280;65787;59.922;10.742;2023-12-04T11:48:53;101305.69;;;-0.61;34.12
51315;BME280;65787;59.922;10.742;2023-12-04T11:54:03;101303.00;;;-0.46;33.94
51315;BME280;65787;59.922;10.742;2023-12-04T11:56:30;101306.88;;;-0.39;33.75
51315;BME280;65787;59.922;10.742;2023-12-04T11:58:55;101309.03;;;-0.31;33.44
51315;BME280;65787;59.922;10.742;2023-12-04T12:01:27;101306.81;;;-0.25;33.70
51315;BME280;65787;59.922;10.742;2023-12-04T12:03:52;101299.97;;;-0.14;33.88
51315;BME280;65787;59.922;10.742;2023-12-04T12:06:18;101300.28;;;-0.06;33.87
51315;BME280;65787;59.922;10.742;2023-12-04T12:08:43;101299.47;;;-0.07;33.67
51315;BME280;65787;59.922;10.742;2023-12-04T12:11:09;101297.38;;;-0.02;34.15
51315;BME280;65787;59.922;10.742;2023-12-04T12:13:35;101300.41;;;0.05;34.84
51315;BME280;65787;59.922;10.742;2023-12-04T12:16:00;101299.38;;;0.08;33.85
51315;BME280;65787;59.922;10.742;2023-12-04T12:18:27;101292.38;;;0.07;33.15
51315;BME280;65787;59.922;10.742;2023-12-04T12:20:54;101287.09;;;0.19;34.38
51315;BME280;65787;59.922;10.742;2023-12-04T12:23:19;101280.44;;;0.27;34.06
51315;BME280;65787;59.922;10.742;2023-12-04T12:25:45;101293.22;;;0.33;34.11
51315;BME280;65787;59.922;10.742;2023-12-04T12:28:11;101282.56;;;0.34;32.87
51315;BME280;65787;59.922;10.742;2023-12-04T12:30:36;101281.38;;;0.38;32.98
51315;BME280;65787;59.922;10.742;2023-12-04T12:33:02;101293.22;;;0.46;33.79
51315;BME280;65787;59.922;10.742;2023-12-04T12:35:27;101281.38;;;0.51;33.56